Time;durP1;ratioP1;P1;durP2;ratioP2;P2;SDS_P1;SDS_P2;PMS_P1;PMS_P2;Temp;Humidity;BMP_temperature;BMP_pressure;BME280_temperature;BME280_humidity;BME280_pressure;Samples;Min_cycle;Max_cycle;Signal;HPM_P1;HPM_P2
2021/09/29 00:00:05;;;;;;;71.60;18.52;;;;;;;;;;4800890;29;20267;-92
2021/09/29 00:03:26;;;;;;;36.72;16.67;;;;;;;;;;4816208;29;20215;-93
2021/09/29 00:06:39;;;;;;;33.03;16.25;;;;;;;;;;4818591;29;20243;-92
2021/09/29 00:09:51;;;;;;;32.58;17.35;;;;;;;;;;4817870;29;20265;-92
2021/09/29 00:13:03;;;;;;;35.58;17.52;;;;;;;;;;4817861;29;20206;-91
2021/09/29 00:16:15;;;;;;;34.17;17.33;;;;;;;;;;4817837;29;20676;-92
2021/09/29 00:19:27;;;;;;;96.47;17.10;;;;;;;;;;4819069;29;20219;-92
2021/09/29 00:22:40;;;;;;;37.88;16.85;;;;;;;;;;4819283;29;20642;-90
2021/09/29 00:25:52;;;;;;;31.05;16.42;;;;;;;;;;4818241;29;20235;-92
2021/09/29 00:29:03;;;;;;;29.05;16.02;;;;;;;;;;4816928;29;20192;-91
2021/09/29 00:32:17;;;;;;;31.95;16.55;;;;;;;;;;4818650;29;20212;-91
2021/09/29 00:35:30;;;;;;;31.73;16.27;;;;;;;;;;4819042;29;20200;-92
2021/09/29 00:38:42;;;;;;;31.67;15.95;;;;;;;;;;4818462;29;20199;-92
2021/09/29 00:41:54;;;;;;;85.38;17.67;;;;;;;;;;4817877;29;20208;-94
2021/09/29 00:45:07;;;;;;;62.15;16.38;;;;;;;;;;4816478;29;20220;-91
2021/09/29 00:48:19;;;;;;;34.97;17.08;;;;;;;;;;4817253;29;20680;-94
2021/09/29 00:51:30;;;;;;;35.55;17.05;;;;;;;;;;4816666;29;20421;-94
2021/09/29 00:54:43;;;;;;;31.67;17.50;;;;;;;;;;4814078;29;20569;-92
2021/09/29 00:57:55;;;;;;;36.28;16.90;;;;;;;;;;4799986;29;20278;-92
2021/09/29 01:01:07;;;;;;;35.42;17.48;;;;;;;;;;4811637;29;20223;-91
2021/09/29 01:04:35;;;;;;;32.47;16.90;;;;;;;;;;4816744;29;20200;-92
2021/09/29 01:07:50;;;;;;;53.95;18.05;;;;;;;;;;4809851;29;20291;-91
2021/09/29 01:11:08;;;;;;;39.75;16.67;;;;;;;;;;4817953;29;20211;-92
2021/09/29 01:14:24;;;;;;;38.97;17.45;;;;;;;;;;4819955;29;20204;-91
2021/09/29 01:17:36;;;;;;;58.05;16.80;;;;;;;;;;4818290;29;20735;-90
2021/09/29 01:20:49;;;;;;;48.88;15.90;;;;;;;;;;4819248;29;20208;-92
2021/09/29 01:24:03;;;;;;;45.17;17.05;;;;;;;;;;4819141;29;20333;-93
2021/09/29 01:27:16;;;;;;;73.30;19.10;;;;;;;;;;4817266;29;20207;-92
2021/09/29 01:30:29;;;;;;;48.13;17.65;;;;;;;;;;4818869;29;20331;-92
2021/09/29 01:33:41;;;;;;;55.17;16.15;;;;;;;;;;4818322;29;20208;-94
2021/09/29 01:36:52;;;;;;;52.30;15.13;;;;;;;;;;4818863;29;20278;-94
2021/09/29 01:40:05;;;;;;;38.35;14.65;;;;;;;;;;4818236;29;20204;-93
2021/09/29 01:43:18;;;;;;;37.90;13.90;;;;;;;;;;4799922;29;20230;-92
2021/09/29 01:46:31;;;;;;;26.23;12.30;;;;;;;;;;4812100;29;20226;-92
2021/09/29 01:49:44;;;;;;;24.75;13.05;;;;;;;;;;4803809;29;20282;-92
2021/09/29 01:52:58;;;;;;;26.88;12.63;;;;;;;;;;4802220;29;20207;-92
2021/09/29 01:56:09;;;;;;;34.95;11.65;;;;;;;;;;4815542;29;20281;-92
2021/09/29 01:59:25;;;;;;;26.23;11.25;;;;;;;;;;4814990;29;20267;-91
2021/09/29 02:02:40;;;;;;;20.52;10.82;;;;;;;;;;4816382;29;20199;-93
2021/09/29 02:05:52;;;;;;;18.73;10.82;;;;;;;;;;4815813;29;20235;-91
2021/09/29 02:09:04;;;;;;;19.77;11.02;;;;;;;;;;4816265;29;20229;-93
2021/09/29 02:12:16;;;;;;;20.50;11.75;;;;;;;;;;4815142;29;20564;-92
2021/09/29 02:15:30;;;;;;;22.13;11.38;;;;;;;;;;4801053;29;20349;-92
2021/09/29 02:18:41;;;;;;;20.27;11.25;;;;;;;;;;4814612;29;20203;-92
2021/09/29 02:21:54;;;;;;;19.35;10.68;;;;;;;;;;4800919;29;20204;-92
2021/09/29 02:25:05;;;;;;;20.10;11.82;;;;;;;;;;4796670;29;20216;-91
2021/09/29 02:28:17;;;;;;;18.30;10.77;;;;;;;;;;4797099;29;20724;-92
2021/09/29 02:31:30;;;;;;;19.35;10.85;;;;;;;;;;4797180;30;20189;-92
2021/09/29 02:34:41;;;;;;;22.45;11.55;;;;;;;;;;4815925;29;20204;-92
2021/09/29 02:37:53;;;;;;;20.92;11.30;;;;;;;;;;4817550;29;20228;-93
2021/09/29 02:41:05;;;;;;;21.05;11.07;;;;;;;;;;4819169;29;20196;-93
2021/09/29 02:44:16;;;;;;;22.05;11.77;;;;;;;;;;4819002;29;20196;-91
2021/09/29 02:47:29;;;;;;;18.25;10.60;;;;;;;;;;4820376;29;20660;-92
2021/09/29 02:50:42;;;;;;;22.08;11.02;;;;;;;;;;4820952;29;20254;-92
2021/09/29 02:53:53;;;;;;;27.05;12.05;;;;;;;;;;4820109;29;20200;-92
2021/09/29 02:57:05;;;;;;;27.15;12.10;;;;;;;;;;4810825;29;20248;-92
2021/09/29 03:00:18;;;;;;;29.95;12.57;;;;;;;;;;4817785;29;20208;-93
2021/09/29 03:03:32;;;;;;;22.10;12.55;;;;;;;;;;4820461;29;20215;-92
2021/09/29 03:06:43;;;;;;;22.27;12.00;;;;;;;;;;4819526;29;20671;-92
2021/09/29 03:09:54;;;;;;;27.63;13.82;;;;;;;;;;4819576;29;20192;-93
2021/09/29 03:13:05;;;;;;;23.77;12.77;;;;;;;;;;4818053;29;20336;-91
2021/09/29 03:16:17;;;;;;;25.60;12.75;;;;;;;;;;4818512;29;20225;-90
2021/09/29 03:19:30;;;;;;;27.63;12.90;;;;;;;;;;4818855;29;20204;-90
2021/09/29 03:22:42;;;;;;;25.17;12.60;;;;;;;;;;4800239;29;20316;-91
2021/09/29 03:25:53;;;;;;;24.63;13.15;;;;;;;;;;4817724;29;20231;-93
2021/09/29 03:29:04;;;;;;;23.10;12.48;;;;;;;;;;4818037;29;20216;-93
2021/09/29 03:32:16;;;;;;;21.80;11.73;;;;;;;;;;4818289;29;20219;-92
2021/09/29 03:35:37;;;;;;;27.73;13.38;;;;;;;;;;4819197;29;20229;-92
2021/09/29 03:38:49;;;;;;;23.27;12.60;;;;;;;;;;4799128;29;20201;-91
2021/09/29 03:42:01;;;;;;;27.10;13.55;;;;;;;;;;4800740;30;20194;-91
2021/09/29 03:45:16;;;;;;;23.30;13.65;;;;;;;;;;4800011;29;20320;-92
2021/09/29 03:48:27;;;;;;;24.88;14.25;;;;;;;;;;4811252;29;20252;-93
2021/09/29 03:51:41;;;;;;;24.05;14.07;;;;;;;;;;4823092;29;20221;-91
2021/09/29 03:54:53;;;;;;;23.33;13.15;;;;;;;;;;4820455;29;20207;-92
2021/09/29 03:58:05;;;;;;;23.85;13.73;;;;;;;;;;4809374;29;20220;-92
2021/09/29 04:01:19;;;;;;;23.08;13.98;;;;;;;;;;4801609;29;20290;-93
2021/09/29 04:04:45;;;;;;;27.75;13.57;;;;;;;;;;4808829;29;20204;-91
2021/09/29 04:07:58;;;;;;;23.92;13.00;;;;;;;;;;4821826;29;20278;-93
2021/09/29 04:11:11;;;;;;;23.30;13.32;;;;;;;;;;4815860;29;20216;-91
2021/09/29 04:14:23;;;;;;;22.65;12.57;;;;;;;;;;4817615;29;20245;-93
2021/09/29 04:17:34;;;;;;;22.70;12.45;;;;;;;;;;4818779;29;20207;-92
2021/09/29 04:20:46;;;;;;;22.50;12.57;;;;;;;;;;4807867;29;20208;-91
2021/09/29 04:24:00;;;;;;;20.33;12.00;;;;;;;;;;4801635;29;20204;-92
2021/09/29 04:27:12;;;;;;;24.10;13.85;;;;;;;;;;4820814;29;20231;-92
2021/09/29 04:30:24;;;;;;;28.95;12.73;;;;;;;;;;4802079;29;20209;-91
2021/09/29 04:33:36;;;;;;;22.60;12.43;;;;;;;;;;4802776;29;20189;-92
2021/09/29 04:36:48;;;;;;;21.23;12.27;;;;;;;;;;4802206;29;20200;-92
2021/09/29 04:40:02;;;;;;;20.80;12.15;;;;;;;;;;4815549;29;20363;-92
2021/09/29 04:43:13;;;;;;;21.08;11.90;;;;;;;;;;4818688;29;20192;-92
2021/09/29 04:46:25;;;;;;;19.55;11.10;;;;;;;;;;4817228;29;20308;-90
2021/09/29 04:49:36;;;;;;;23.42;12.35;;;;;;;;;;4818947;29;20341;-91
2021/09/29 04:52:49;;;;;;;21.00;11.90;;;;;;;;;;4806324;29;20199;-91
2021/09/29 04:56:02;;;;;;;22.05;12.23;;;;;;;;;;4819632;29;20225;-92
2021/09/29 04:59:19;;;;;;;22.67;12.05;;;;;;;;;;4815173;29;20204;-91
2021/09/29 05:02:31;;;;;;;27.15;13.63;;;;;;;;;;4808832;29;20224;-89
2021/09/29 05:09:32;;;;;;;24.55;13.23;;;;;;;;;;4819661;29;20265;-91
2021/09/29 05:12:47;;;;;;;24.13;13.82;;;;;;;;;;4819937;29;20204;-91
2021/09/29 05:15:59;;;;;;;23.67;13.55;;;;;;;;;;4818871;29;20584;-92
2021/09/29 05:19:15;;;;;;;24.52;14.13;;;;;;;;;;4819703;29;20202;-90
2021/09/29 05:22:27;;;;;;;29.50;15.13;;;;;;;;;;4816895;29;20216;-91
2021/09/29 05:25:40;;;;;;;29.27;14.65;;;;;;;;;;4821630;29;20275;-91
2021/09/29 05:28:53;;;;;;;24.65;13.20;;;;;;;;;;4803467;29;20258;-92
2021/09/29 05:32:04;;;;;;;25.23;14.20;;;;;;;;;;4813549;29;20261;-93
2021/09/29 05:35:17;;;;;;;26.45;13.52;;;;;;;;;;4821732;29;20196;-92
2021/09/29 05:38:30;;;;;;;24.10;13.27;;;;;;;;;;4802339;29;20269;-92
2021/09/29 05:41:42;;;;;;;27.45;13.82;;;;;;;;;;4810315;29;20307;-91
2021/09/29 05:44:55;;;;;;;25.30;14.40;;;;;;;;;;4820353;29;20239;-93
2021/09/29 05:48:07;;;;;;;32.42;15.15;;;;;;;;;;4819654;29;20212;-92
2021/09/29 05:51:19;;;;;;;23.48;13.07;;;;;;;;;;4806020;29;20224;-90
2021/09/29 05:54:31;;;;;;;28.60;13.90;;;;;;;;;;4813561;29;20230;-91
2021/09/29 05:57:43;;;;;;;26.42;13.07;;;;;;;;;;4821939;29;20215;-91
2021/09/29 06:00:56;;;;;;;22.60;12.35;;;;;;;;;;4821265;29;20257;-89
2021/09/29 06:04:11;;;;;;;23.48;13.50;;;;;;;;;;4820682;29;20278;-89
2021/09/29 06:07:23;;;;;;;24.05;14.38;;;;;;;;;;4823192;29;20231;-91
2021/09/29 06:10:35;;;;;;;25.90;14.45;;;;;;;;;;4822610;29;20200;-91
2021/09/29 06:13:47;;;;;;;26.13;13.60;;;;;;;;;;4820357;29;20286;-90
2021/09/29 06:17:11;;;;;;;21.25;12.20;;;;;;;;;;4819749;29;20203;-92
2021/09/29 06:20:23;;;;;;;21.02;12.68;;;;;;;;;;4819730;29;20271;-93
2021/09/29 06:23:36;;;;;;;26.20;13.30;;;;;;;;;;4821296;29;20258;-92
2021/09/29 06:26:47;;;;;;;22.60;13.52;;;;;;;;;;4817886;29;20247;-92
2021/09/29 06:30:00;;;;;;;25.55;13.80;;;;;;;;;;4817649;29;20218;-92
2021/09/29 06:33:13;;;;;;;27.88;14.30;;;;;;;;;;4821004;29;20192;-91
2021/09/29 06:36:25;;;;;;;26.60;14.18;;;;;;;;;;4818208;29;20267;-92
2021/09/29 06:39:37;;;;;;;30.00;15.60;;;;;;;;;;4816127;29;20358;-92
2021/09/29 06:42:49;;;;;;;29.92;15.75;;;;;;;;;;4818137;29;20208;-90
2021/09/29 06:46:01;;;;;;;40.97;16.40;;;;;;;;;;4818055;29;20208;-91
2021/09/29 06:49:15;;;;;;;29.63;16.17;;;;;;;;;;4799042;29;20217;-91
2021/09/29 06:52:27;;;;;;;31.80;16.08;;;;;;;;;;4799641;29;20222;-92
2021/09/29 06:55:39;;;;;;;33.70;16.95;;;;;;;;;;4798362;29;20197;-90
2021/09/29 06:58:52;;;;;;;32.55;17.25;;;;;;;;;;4799154;29;20272;-91
2021/09/29 07:02:06;;;;;;;35.17;17.15;;;;;;;;;;4816431;29;20208;-91
2021/09/29 07:05:20;;;;;;;34.38;18.00;;;;;;;;;;4818413;29;20192;-91
2021/09/29 07:08:32;;;;;;;35.83;17.73;;;;;;;;;;4816091;29;20228;-90
2021/09/29 07:11:44;;;;;;;37.83;18.08;;;;;;;;;;4818039;29;20204;-93
2021/09/29 07:14:56;;;;;;;36.45;17.38;;;;;;;;;;4816978;29;20200;-92
2021/09/29 18:31:11;;;;;;;9.48;4.35;;;;;;;;;;5473813;24;20298;-92
2021/09/29 18:34:40;;;;;;;10.80;4.15;;;;;;;;;;4857556;29;20194;-91
2021/09/29 18:37:53;;;;;;;11.27;5.68;;;;;;;;;;4858489;29;20202;-89
2021/09/29 18:41:07;;;;;;;10.38;4.78;;;;;;;;;;4859199;29;20228;-91
2021/09/29 18:44:20;;;;;;;8.68;4.40;;;;;;;;;;4859311;29;20202;-91
2021/09/29 18:47:45;;;;;;;7.95;4.20;;;;;;;;;;4851678;29;20268;-91
2021/09/29 18:51:13;;;;;;;12.73;3.85;;;;;;;;;;4860167;29;20202;-91
2021/09/29 18:54:33;;;;;;;10.85;4.15;;;;;;;;;;4861758;29;20214;-91
2021/09/29 19:08:39;;;;;;;15.05;4.65;;;;;;;;;;4840522;29;20215;-92
2021/09/29 19:11:59;;;;;;;19.60;5.82;;;;;;;;;;4839874;29;20175;-91
2021/09/29 19:15:14;;;;;;;20.00;6.07;;;;;;;;;;4841728;29;20187;-91
2021/09/29 19:18:27;;;;;;;13.75;5.20;;;;;;;;;;4840802;29;20198;-92
2021/09/29 19:21:41;;;;;;;15.43;4.70;;;;;;;;;;4841212;29;20191;-90
2021/09/29 19:24:57;;;;;;;7.18;2.85;;;;;;;;;;4845295;29;20190;-90
2021/09/29 19:28:23;;;;;;;4.72;2.75;;;;;;;;;;4863444;29;20684;-90
2021/09/29 19:31:36;;;;;;;8.15;2.70;;;;;;;;;;4861905;29;20229;-91
2021/09/29 19:34:50;;;;;;;39.80;3.63;;;;;;;;;;4861807;29;20219;-92
2021/09/29 19:38:03;;;;;;;5.82;2.13;;;;;;;;;;4851752;29;20252;-89
2021/09/29 19:41:17;;;;;;;3.97;1.95;;;;;;;;;;4857108;29;20206;-91
2021/09/29 22:18:19;;;;;;;5.07;0.93;;;;;;;;;;4802789;30;20207;-91
2021/09/29 22:43:02;;;;;;;2.60;1.10;;;;;;;;;;4775438;29;20247;-91
2021/09/29 23:04:11;;;;;;;2.08;0.82;;;;;;;;;;4803259;29;20212;-91
2021/09/29 23:07:26;;;;;;;1.23;0.80;;;;;;;;;;4803031;30;20212;-91
2021/09/29 23:10:47;;;;;;;1.52;0.70;;;;;;;;;;4802745;29;20250;-90
2021/09/29 23:14:07;;;;;;;1.77;0.75;;;;;;;;;;4802873;30;20250;-91
2021/09/29 23:34:49;;;;;;;1.73;0.80;;;;;;;;;;4802771;30;20200;-91
2021/09/29 23:38:01;;;;;;;2.78;1.00;;;;;;;;;;4801962;29;20703;-91
2021/09/29 23:41:13;;;;;;;1.13;0.80;;;;;;;;;;4795054;30;20279;-90
2021/09/29 23:44:26;;;;;;;2.00;0.90;;;;;;;;;;4802093;30;20212;-91
2021/09/29 23:47:39;;;;;;;2.63;1.10;;;;;;;;;;4803780;30;20204;-91
2021/09/29 23:50:52;;;;;;;1.88;1.02;;;;;;;;;;4803698;30;20227;-92
2021/09/29 23:54:04;;;;;;;1.85;0.80;;;;;;;;;;4785429;30;20209;-92
2021/09/29 23:57:16;;;;;;;4.53;1.38;;;;;;;;;;4795817;29;20232;-92
